sensor_id;sensor_type;location;lat;lon;timestamp;P1;durP1;ratioP1;P2;durP2;ratioP2
14738;SDS011;7461;52.440;13.540;2024-03-08T00:00:03;32.70;;;29.15;;
14738;SDS011;7461;52.440;13.540;2024-03-08T00:02:36;37.28;;;33.42;;
14738;SDS011;7461;52.440;13.540;2024-03-08T00:05:04;37.38;;;33.33;;
14738;SDS011;7461;52.440;13.540;2024-03-08T00:07:31;36.17;;;32.33;;
14738;SDS011;7461;52.440;13.540;2024-03-08T00:09:58;33.58;;;30.35;;
14738;SDS011;7461;52.440;13.540;2024-03-08T00:12:26;34.17;;;30.73;;
14738;SDS011;7461;52.440;13.540;2024-03-08T00:14:53;34.17;;;30.90;;
14738;SDS011;7461;52.440;13.540;2024-03-08T00:17:20;33.75;;;30.30;;
14738;SDS011;7461;52.440;13.540;2024-03-08T00:19:50;35.10;;;31.60;;
14738;SDS011;7461;52.440;13.540;2024-03-08T00:22:17;35.47;;;32.17;;
14738;SDS011;7461;52.440;13.540;2024-03-08T00:24:44;34.05;;;30.80;;
14738;SDS011;7461;52.440;13.540;2024-03-08T00:27:12;35.10;;;31.80;;
14738;SDS011;7461;52.440;13.540;2024-03-08T00:29:40;35.40;;;30.83;;
14738;SDS011;7461;52.440;13.540;2024-03-08T00:32:08;35.25;;;31.55;;
14738;SDS011;7461;52.440;13.540;2024-03-08T00:34:36;30.73;;;27.75;;
14738;SDS011;7461;52.440;13.540;2024-03-08T00:37:04;36.72;;;33.40;;
14738;SDS011;7461;52.440;13.540;2024-03-08T00:39:32;34.47;;;31.13;;
14738;SDS011;7461;52.440;13.540;2024-03-08T00:41:59;33.45;;;29.45;;
14738;SDS011;7461;52.440;13.540;2024-03-08T00:44:26;34.28;;;31.02;;
14738;SDS011;7461;52.440;13.540;2024-03-08T00:46:53;34.00;;;30.65;;
14738;SDS011;7461;52.440;13.540;2024-03-08T00:49:21;34.45;;;30.98;;
14738;SDS011;7461;52.440;13.540;2024-03-08T00:51:48;34.67;;;31.17;;
14738;SDS011;7461;52.440;13.540;2024-03-08T00:54:17;34.78;;;31.50;;
14738;SDS011;7461;52.440;13.540;2024-03-08T00:56:44;33.67;;;30.27;;
14738;SDS011;7461;52.440;13.540;2024-03-08T00:59:12;33.38;;;29.92;;
14738;SDS011;7461;52.440;13.540;2024-03-08T01:01:39;33.35;;;29.83;;
14738;SDS011;7461;52.440;13.540;2024-03-08T01:04:09;34.72;;;31.20;;
14738;SDS011;7461;52.440;13.540;2024-03-08T01:06:36;34.88;;;30.80;;
14738;SDS011;7461;52.440;13.540;2024-03-08T01:09:03;36.97;;;33.10;;
14738;SDS011;7461;52.440;13.540;2024-03-08T01:11:33;36.60;;;33.13;;
14738;SDS011;7461;52.440;13.540;2024-03-08T01:14:00;34.22;;;30.63;;
14738;SDS011;7461;52.440;13.540;2024-03-08T01:16:28;33.53;;;30.33;;
14738;SDS011;7461;52.440;13.540;2024-03-08T01:18:55;37.28;;;33.60;;
14738;SDS011;7461;52.440;13.540;2024-03-08T01:21:22;34.28;;;30.77;;
14738;SDS011;7461;52.440;13.540;2024-03-08T01:23:49;34.47;;;30.75;;
14738;SDS011;7461;52.440;13.540;2024-03-08T01:26:16;36.92;;;33.40;;
14738;SDS011;7461;52.440;13.540;2024-03-08T01:28:45;35.58;;;32.22;;
14738;SDS011;7461;52.440;13.540;2024-03-08T01:31:12;36.30;;;32.75;;
14738;SDS011;7461;52.440;13.540;2024-03-08T01:33:41;36.25;;;32.55;;
14738;SDS011;7461;52.440;13.540;2024-03-08T01:36:08;33.00;;;29.73;;
14738;SDS011;7461;52.440;13.540;2024-03-08T01:38:35;33.22;;;30.27;;
14738;SDS011;7461;52.440;13.540;2024-03-08T01:41:03;34.72;;;31.58;;
14738;SDS011;7461;52.440;13.540;2024-03-08T01:43:30;36.47;;;32.67;;
14738;SDS011;7461;52.440;13.540;2024-03-08T01:45:59;35.97;;;32.35;;
14738;SDS011;7461;52.440;13.540;2024-03-08T01:48:26;35.80;;;31.92;;
14738;SDS011;7461;52.440;13.540;2024-03-08T01:50:54;34.80;;;31.40;;
14738;SDS011;7461;52.440;13.540;2024-03-08T01:53:22;37.53;;;33.97;;
14738;SDS011;7461;52.440;13.540;2024-03-08T01:55:52;35.88;;;32.10;;
14738;SDS011;7461;52.440;13.540;2024-03-08T01:58:20;37.90;;;33.85;;
14738;SDS011;7461;52.440;13.540;2024-03-08T02:00:48;37.30;;;33.67;;
14738;SDS011;7461;52.440;13.540;2024-03-08T02:03:17;36.97;;;33.40;;
14738;SDS011;7461;52.440;13.540;2024-03-08T02:05:47;38.13;;;34.40;;
14738;SDS011;7461;52.440;13.540;2024-03-08T02:08:14;33.22;;;29.98;;
14738;SDS011;7461;52.440;13.540;2024-03-08T02:10:43;38.83;;;35.22;;
14738;SDS011;7461;52.440;13.540;2024-03-08T02:13:10;37.72;;;34.17;;
14738;SDS011;7461;52.440;13.540;2024-03-08T02:15:51;37.75;;;34.00;;
14738;SDS011;7461;52.440;13.540;2024-03-08T02:18:19;40.22;;;36.17;;
14738;SDS011;7461;52.440;13.540;2024-03-08T02:20:48;37.28;;;33.47;;
14738;SDS011;7461;52.440;13.540;2024-03-08T02:23:16;39.10;;;35.17;;
14738;SDS011;7461;52.440;13.540;2024-03-08T02:25:43;33.95;;;30.75;;
14738;SDS011;7461;52.440;13.540;2024-03-08T02:28:11;36.08;;;32.30;;
14738;SDS011;7461;52.440;13.540;2024-03-08T02:30:38;40.42;;;35.30;;
14738;SDS011;7461;52.440;13.540;2024-03-08T02:33:06;36.75;;;32.83;;
14738;SDS011;7461;52.440;13.540;2024-03-08T02:35:34;40.33;;;36.13;;
14738;SDS011;7461;52.440;13.540;2024-03-08T02:38:03;37.58;;;33.70;;
14738;SDS011;7461;52.440;13.540;2024-03-08T02:40:30;39.95;;;34.35;;
14738;SDS011;7461;52.440;13.540;2024-03-08T02:42:57;37.20;;;33.63;;
14738;SDS011;7461;52.440;13.540;2024-03-08T02:45:24;35.28;;;31.73;;
14738;SDS011;7461;52.440;13.540;2024-03-08T02:47:52;38.30;;;34.45;;
14738;SDS011;7461;52.440;13.540;2024-03-08T02:50:19;39.13;;;35.13;;
14738;SDS011;7461;52.440;13.540;2024-03-08T02:52:47;37.53;;;33.60;;
14738;SDS011;7461;52.440;13.540;2024-03-08T02:55:16;38.22;;;34.05;;
14738;SDS011;7461;52.440;13.540;2024-03-08T02:57:43;39.22;;;35.15;;
14738;SDS011;7461;52.440;13.540;2024-03-08T03:00:12;35.83;;;32.25;;
14738;SDS011;7461;52.440;13.540;2024-03-08T03:02:40;38.80;;;35.10;;
14738;SDS011;7461;52.440;13.540;2024-03-08T03:05:08;38.33;;;34.38;;
14738;SDS011;7461;52.440;13.540;2024-03-08T03:07:36;37.40;;;33.83;;
14738;SDS011;7461;52.440;13.540;2024-03-08T03:10:04;38.20;;;34.28;;
14738;SDS011;7461;52.440;13.540;2024-03-08T03:12:33;38.53;;;34.63;;
14738;SDS011;7461;52.440;13.540;2024-03-08T03:15:00;37.83;;;33.92;;
14738;SDS011;7461;52.440;13.540;2024-03-08T03:17:27;44.30;;;40.05;;
14738;SDS011;7461;52.440;13.540;2024-03-08T03:19:55;36.47;;;32.85;;
14738;SDS011;7461;52.440;13.540;2024-03-08T03:22:22;40.58;;;34.08;;
14738;SDS011;7461;52.440;13.540;2024-03-08T03:24:50;36.97;;;33.25;;
14738;SDS011;7461;52.440;13.540;2024-03-08T03:27:18;39.50;;;35.28;;
14738;SDS011;7461;52.440;13.540;2024-03-08T03:29:47;40.28;;;33.95;;
14738;SDS011;7461;52.440;13.540;2024-03-08T03:32:14;37.45;;;33.92;;
14738;SDS011;7461;52.440;13.540;2024-03-08T03:34:43;40.25;;;36.30;;
14738;SDS011;7461;52.440;13.540;2024-03-08T03:37:10;38.33;;;34.45;;
14738;SDS011;7461;52.440;13.540;2024-03-08T03:39:38;38.65;;;35.03;;
14738;SDS011;7461;52.440;13.540;2024-03-08T03:42:13;37.83;;;33.88;;
14738;SDS011;7461;52.440;13.540;2024-03-08T03:44:41;40.85;;;36.85;;
14738;SDS011;7461;52.440;13.540;2024-03-08T03:47:11;41.90;;;37.72;;
14738;SDS011;7461;52.440;13.540;2024-03-08T03:49:38;37.25;;;33.47;;
14738;SDS011;7461;52.440;13.540;2024-03-08T03:52:05;41.58;;;37.45;;
14738;SDS011;7461;52.440;13.540;2024-03-08T03:54:33;41.72;;;37.22;;
14738;SDS011;7461;52.440;13.540;2024-03-08T03:57:00;42.03;;;37.80;;
14738;SDS011;7461;52.440;13.540;2024-03-08T03:59:27;41.60;;;37.42;;
14738;SDS011;7461;52.440;13.540;2024-03-08T04:01:55;41.05;;;36.45;;
14738;SDS011;7461;52.440;13.540;2024-03-08T04:04:23;41.65;;;37.30;;
14738;SDS011;7461;52.440;13.540;2024-03-08T04:06:50;42.55;;;37.38;;
14738;SDS011;7461;52.440;13.540;2024-03-08T04:09:18;41.53;;;37.05;;
14738;SDS011;7461;52.440;13.540;2024-03-08T04:11:47;43.55;;;38.70;;
14738;SDS011;7461;52.440;13.540;2024-03-08T04:14:15;42.47;;;38.47;;
14738;SDS011;7461;52.440;13.540;2024-03-08T04:16:42;41.88;;;37.47;;
14738;SDS011;7461;52.440;13.540;2024-03-08T04:19:09;43.80;;;38.45;;
14738;SDS011;7461;52.440;13.540;2024-03-08T04:21:38;42.72;;;38.38;;
14738;SDS011;7461;52.440;13.540;2024-03-08T04:24:05;45.20;;;40.78;;
14738;SDS011;7461;52.440;13.540;2024-03-08T04:26:34;44.85;;;39.10;;
14738;SDS011;7461;52.440;13.540;2024-03-08T04:29:01;42.78;;;38.30;;
14738;SDS011;7461;52.440;13.540;2024-03-08T04:31:28;44.63;;;40.28;;
14738;SDS011;7461;52.440;13.540;2024-03-08T04:33:56;43.55;;;39.28;;
14738;SDS011;7461;52.440;13.540;2024-03-08T04:36:24;44.88;;;40.22;;
14738;SDS011;7461;52.440;13.540;2024-03-08T04:38:53;42.53;;;37.65;;
14738;SDS011;7461;52.440;13.540;2024-03-08T04:41:20;44.10;;;39.92;;
14738;SDS011;7461;52.440;13.540;2024-03-08T04:43:48;44.33;;;39.80;;
14738;SDS011;7461;52.440;13.540;2024-03-08T04:46:15;42.13;;;37.72;;
14738;SDS011;7461;52.440;13.540;2024-03-08T04:48:43;42.97;;;38.63;;
14738;SDS011;7461;52.440;13.540;2024-03-08T04:51:10;45.05;;;40.25;;
14738;SDS011;7461;52.440;13.540;2024-03-08T04:53:37;44.63;;;40.10;;
14738;SDS011;7461;52.440;13.540;2024-03-08T04:56:06;46.40;;;41.50;;
14738;SDS011;7461;52.440;13.540;2024-03-08T04:58:35;43.97;;;39.28;;
14738;SDS011;7461;52.440;13.540;2024-03-08T05:01:02;47.40;;;42.58;;
14738;SDS011;7461;52.440;13.540;2024-03-08T05:03:29;45.28;;;40.42;;
14738;SDS011;7461;52.440;13.540;2024-03-08T05:05:57;47.65;;;41.58;;
14738;SDS011;7461;52.440;13.540;2024-03-08T05:08:24;49.20;;;44.22;;
14738;SDS011;7461;52.440;13.540;2024-03-08T05:10:51;49.40;;;43.00;;
14738;SDS011;7461;52.440;13.540;2024-03-08T05:13:19;49.33;;;44.20;;
14738;SDS011;7461;52.440;13.540;2024-03-08T05:15:48;49.35;;;44.03;;
14738;SDS011;7461;52.440;13.540;2024-03-08T05:18:16;50.88;;;45.60;;
14738;SDS011;7461;52.440;13.540;2024-03-08T05:20:43;50.60;;;43.53;;
14738;SDS011;7461;52.440;13.540;2024-03-08T05:23:10;51.25;;;45.30;;
14738;SDS011;7461;52.440;13.540;2024-03-08T05:25:37;52.40;;;46.83;;
14738;SDS011;7461;52.440;13.540;2024-03-08T05:28:06;50.00;;;44.90;;
14738;SDS011;7461;52.440;13.540;2024-03-08T05:30:35;51.80;;;46.20;;
14738;SDS011;7461;52.440;13.540;2024-03-08T05:33:02;51.03;;;44.75;;
14738;SDS011;7461;52.440;13.540;2024-03-08T05:35:30;50.00;;;44.63;;
14738;SDS011;7461;52.440;13.540;2024-03-08T05:37:57;51.38;;;45.90;;
14738;SDS011;7461;52.440;13.540;2024-03-08T05:40:24;51.90;;;46.90;;
14738;SDS011;7461;52.440;13.540;2024-03-08T05:42:52;51.03;;;45.53;;
14738;SDS011;7461;52.440;13.540;2024-03-08T05:45:19;49.42;;;44.55;;
14738;SDS011;7461;52.440;13.540;2024-03-08T05:47:48;52.20;;;46.58;;
14738;SDS011;7461;52.440;13.540;2024-03-08T05:50:16;48.25;;;43.35;;
14738;SDS011;7461;52.440;13.540;2024-03-08T05:52:44;49.38;;;44.15;;
14738;SDS011;7461;52.440;13.540;2024-03-08T05:55:12;53.92;;;48.22;;
14738;SDS011;7461;52.440;13.540;2024-03-08T05:57:40;53.40;;;47.25;;
14738;SDS011;7461;52.440;13.540;2024-03-08T06:00:08;53.58;;;47.97;;
14738;SDS011;7461;52.440;13.540;2024-03-08T06:02:37;48.10;;;43.15;;
14738;SDS011;7461;52.440;13.540;2024-03-08T06:05:08;55.58;;;49.85;;
14738;SDS011;7461;52.440;13.540;2024-03-08T06:07:36;51.50;;;46.17;;
14738;SDS011;7461;52.440;13.540;2024-03-08T06:10:06;51.35;;;46.10;;
14738;SDS011;7461;52.440;13.540;2024-03-08T06:12:35;53.72;;;48.05;;
14738;SDS011;7461;52.440;13.540;2024-03-08T06:15:05;54.95;;;45.13;;
14738;SDS011;7461;52.440;13.540;2024-03-08T06:17:34;52.92;;;47.00;;
14738;SDS011;7461;52.440;13.540;2024-03-08T06:20:01;49.70;;;44.80;;
14738;SDS011;7461;52.440;13.540;2024-03-08T06:22:30;53.13;;;47.47;;
14738;SDS011;7461;52.440;13.540;2024-03-08T06:24:58;48.42;;;43.22;;
14738;SDS011;7461;52.440;13.540;2024-03-08T06:27:25;51.53;;;46.22;;
14738;SDS011;7461;52.440;13.540;2024-03-08T06:29:53;52.95;;;47.30;;
14738;SDS011;7461;52.440;13.540;2024-03-08T06:32:21;53.83;;;47.97;;
14738;SDS011;7461;52.440;13.540;2024-03-08T06:34:48;55.33;;;49.50;;
14738;SDS011;7461;52.440;13.540;2024-03-08T06:37:16;53.08;;;47.40;;
14738;SDS011;7461;52.440;13.540;2024-03-08T06:39:48;52.85;;;47.35;;
14738;SDS011;7461;52.440;13.540;2024-03-08T06:42:16;54.35;;;48.70;;
14738;SDS011;7461;52.440;13.540;2024-03-08T06:44:43;53.17;;;47.53;;
14738;SDS011;7461;52.440;13.540;2024-03-08T06:47:14;54.38;;;48.83;;
14738;SDS011;7461;52.440;13.540;2024-03-08T06:49:41;55.83;;;49.85;;
14738;SDS011;7461;52.440;13.540;2024-03-08T06:52:09;54.35;;;48.53;;
14738;SDS011;7461;52.440;13.540;2024-03-08T06:54:36;54.17;;;48.60;;
14738;SDS011;7461;52.440;13.540;2024-03-08T06:57:05;55.60;;;49.78;;
14738;SDS011;7461;52.440;13.540;2024-03-08T06:59:35;59.08;;;53.03;;
14738;SDS011;7461;52.440;13.540;2024-03-08T07:02:02;53.70;;;48.10;;
14738;SDS011;7461;52.440;13.540;2024-03-08T07:04:30;56.42;;;50.88;;
14738;SDS011;7461;52.440;13.540;2024-03-08T07:06:58;56.75;;;50.72;;
14738;SDS011;7461;52.440;13.540;2024-03-08T07:09:27;52.47;;;46.88;;
14738;SDS011;7461;52.440;13.540;2024-03-08T07:11:54;57.05;;;50.58;;
14738;SDS011;7461;52.440;13.540;2024-03-08T07:14:23;56.70;;;49.47;;
14738;SDS011;7461;52.440;13.540;2024-03-08T07:16:50;49.30;;;44.45;;
14738;SDS011;7461;52.440;13.540;2024-03-08T07:19:18;56.83;;;49.67;;
14738;SDS011;7461;52.440;13.540;2024-03-08T07:21:46;53.42;;;46.33;;
14738;SDS011;7461;52.440;13.540;2024-03-08T07:24:14;49.25;;;44.28;;
14738;SDS011;7461;52.440;13.540;2024-03-08T07:26:55;51.88;;;46.55;;
14738;SDS011;7461;52.440;13.540;2024-03-08T07:29:24;49.17;;;44.17;;
14738;SDS011;7461;52.440;13.540;2024-03-08T07:31:51;51.40;;;45.72;;
14738;SDS011;7461;52.440;13.540;2024-03-08T07:34:27;49.33;;;44.30;;
14738;SDS011;7461;52.440;13.540;2024-03-08T07:36:57;50.70;;;45.65;;
14738;SDS011;7461;52.440;13.540;2024-03-08T07:39:24;49.45;;;44.65;;
14738;SDS011;7461;52.440;13.540;2024-03-08T07:41:51;55.20;;;47.42;;
14738;SDS011;7461;52.440;13.540;2024-03-08T07:44:19;47.90;;;43.05;;
14738;SDS011;7461;52.440;13.540;2024-03-08T07:46:47;48.47;;;42.65;;
14738;SDS011;7461;52.440;13.540;2024-03-08T07:49:14;49.42;;;44.78;;
14738;SDS011;7461;52.440;13.540;2024-03-08T07:51:42;53.33;;;47.33;;
14738;SDS011;7461;52.440;13.540;2024-03-08T07:54:09;46.70;;;42.10;;
14738;SDS011;7461;52.440;13.540;2024-03-08T07:56:36;51.40;;;45.78;;
14738;SDS011;7461;52.440;13.540;2024-03-08T07:59:03;48.83;;;43.80;;
14738;SDS011;7461;52.440;13.540;2024-03-08T08:01:31;49.17;;;43.28;;
14738;SDS011;7461;52.440;13.540;2024-03-08T08:04:00;47.25;;;42.55;;
14738;SDS011;7461;52.440;13.540;2024-03-08T08:06:27;48.83;;;44.05;;
14738;SDS011;7461;52.440;13.540;2024-03-08T08:08:57;46.70;;;42.17;;
14738;SDS011;7461;52.440;13.540;2024-03-08T08:11:25;44.28;;;39.88;;
14738;SDS011;7461;52.440;13.540;2024-03-08T08:13:53;46.30;;;40.95;;
14738;SDS011;7461;52.440;13.540;2024-03-08T08:16:22;46.13;;;41.67;;
14738;SDS011;7461;52.440;13.540;2024-03-08T08:18:50;47.47;;;43.00;;
14738;SDS011;7461;52.440;13.540;2024-03-08T08:21:19;47.38;;;42.60;;
14738;SDS011;7461;52.440;13.540;2024-03-08T08:23:47;45.33;;;40.25;;
14738;SDS011;7461;52.440;13.540;2024-03-08T08:26:14;44.63;;;40.28;;
14738;SDS011;7461;52.440;13.540;2024-03-08T08:28:42;44.25;;;40.25;;
14738;SDS011;7461;52.440;13.540;2024-03-08T08:31:11;45.97;;;41.28;;
14738;SDS011;7461;52.440;13.540;2024-03-08T08:33:38;43.15;;;38.50;;
14738;SDS011;7461;52.440;13.540;2024-03-08T08:36:06;40.80;;;36.50;;
14738;SDS011;7461;52.440;13.540;2024-03-08T08:38:34;45.33;;;41.08;;
14738;SDS011;7461;52.440;13.540;2024-03-08T08:41:02;42.17;;;38.13;;
14738;SDS011;7461;52.440;13.540;2024-03-08T08:43:29;43.58;;;39.03;;
14738;SDS011;7461;52.440;13.540;2024-03-08T08:45:58;41.17;;;37.03;;
14738;SDS011;7461;52.440;13.540;2024-03-08T08:48:26;43.65;;;39.58;;
14738;SDS011;7461;52.440;13.540;2024-03-08T08:50:54;45.53;;;41.13;;
14738;SDS011;7461;52.440;13.540;2024-03-08T08:53:21;44.15;;;39.97;;
14738;SDS011;7461;52.440;13.540;2024-03-08T08:55:50;40.25;;;36.20;;
14738;SDS011;7461;52.440;13.540;2024-03-08T08:58:18;38.80;;;35.42;;
14738;SDS011;7461;52.440;13.540;2024-03-08T09:00:45;41.13;;;37.15;;
14738;SDS011;7461;52.440;13.540;2024-03-08T09:03:12;42.10;;;38.20;;
14738;SDS011;7461;52.440;13.540;2024-03-08T09:05:40;41.60;;;37.47;;
14738;SDS011;7461;52.440;13.540;2024-03-08T09:08:09;39.85;;;36.38;;
14738;SDS011;7461;52.440;13.540;2024-03-08T09:10:38;42.92;;;38.75;;
14738;SDS011;7461;52.440;13.540;2024-03-08T09:13:07;41.38;;;37.42;;
14738;SDS011;7461;52.440;13.540;2024-03-08T09:15:36;38.85;;;35.55;;
14738;SDS011;7461;52.440;13.540;2024-03-08T09:18:06;39.92;;;35.97;;
14738;SDS011;7461;52.440;13.540;2024-03-08T09:20:34;38.42;;;34.78;;
14738;SDS011;7461;52.440;13.540;2024-03-08T09:23:02;37.85;;;34.28;;
14738;SDS011;7461;52.440;13.540;2024-03-08T09:25:29;36.90;;;33.42;;
14738;SDS011;7461;52.440;13.540;2024-03-08T09:27:58;38.38;;;34.75;;
14738;SDS011;7461;52.440;13.540;2024-03-08T09:30:26;36.38;;;33.15;;
14738;SDS011;7461;52.440;13.540;2024-03-08T09:32:54;34.78;;;31.85;;
14738;SDS011;7461;52.440;13.540;2024-03-08T09:35:21;35.20;;;31.70;;
14738;SDS011;7461;52.440;13.540;2024-03-08T09:37:48;37.47;;;33.65;;
14738;SDS011;7461;52.440;13.540;2024-03-08T09:40:16;35.40;;;32.15;;
14738;SDS011;7461;52.440;13.540;2024-03-08T09:42:45;36.28;;;32.65;;
14738;SDS011;7461;52.440;13.540;2024-03-08T09:45:12;35.47;;;32.10;;
14738;SDS011;7461;52.440;13.540;2024-03-08T09:47:42;36.05;;;32.40;;
14738;SDS011;7461;52.440;13.540;2024-03-08T09:50:09;32.00;;;28.88;;
14738;SDS011;7461;52.440;13.540;2024-03-08T09:52:38;32.10;;;29.20;;
14738;SDS011;7461;52.440;13.540;2024-03-08T09:55:05;33.05;;;30.00;;
14738;SDS011;7461;52.440;13.540;2024-03-08T09:57:34;30.58;;;27.88;;
14738;SDS011;7461;52.440;13.540;2024-03-08T10:00:03;31.00;;;27.95;;
14738;SDS011;7461;52.440;13.540;2024-03-08T10:02:46;30.15;;;27.13;;
14738;SDS011;7461;52.440;13.540;2024-03-08T10:05:13;30.15;;;27.27;;
14738;SDS011;7461;52.440;13.540;2024-03-08T10:07:41;29.80;;;27.10;;
14738;SDS011;7461;52.440;13.540;2024-03-08T10:10:08;28.45;;;25.98;;
14738;SDS011;7461;52.440;13.540;2024-03-08T10:12:37;26.40;;;23.85;;
14738;SDS011;7461;52.440;13.540;2024-03-08T10:15:05;31.50;;;28.58;;
14738;SDS011;7461;52.440;13.540;2024-03-08T10:17:33;29.25;;;26.83;;
14738;SDS011;7461;52.440;13.540;2024-03-08T10:20:02;27.50;;;25.13;;
14738;SDS011;7461;52.440;13.540;2024-03-08T10:22:39;25.77;;;23.45;;
14738;SDS011;7461;52.440;13.540;2024-03-08T10:25:07;27.15;;;24.33;;
14738;SDS011;7461;52.440;13.540;2024-03-08T10:27:36;28.50;;;25.70;;
14738;SDS011;7461;52.440;13.540;2024-03-08T10:30:06;28.10;;;25.60;;
14738;SDS011;7461;52.440;13.540;2024-03-08T10:32:33;29.63;;;27.10;;
14738;SDS011;7461;52.440;13.540;2024-03-08T10:35:01;28.80;;;26.05;;
14738;SDS011;7461;52.440;13.540;2024-03-08T10:37:30;27.02;;;24.42;;
14738;SDS011;7461;52.440;13.540;2024-03-08T10:40:01;26.25;;;23.83;;
14738;SDS011;7461;52.440;13.540;2024-03-08T10:42:35;26.90;;;24.30;;
14738;SDS011;7461;52.440;13.540;2024-03-08T10:45:10;28.95;;;26.17;;
14738;SDS011;7461;52.440;13.540;2024-03-08T10:47:42;29.08;;;26.48;;
14738;SDS011;7461;52.440;13.540;2024-03-08T10:50:15;27.90;;;25.52;;
14738;SDS011;7461;52.440;13.540;2024-03-08T10:52:48;29.02;;;26.23;;
14738;SDS011;7461;52.440;13.540;2024-03-08T10:55:16;26.95;;;24.17;;
14738;SDS011;7461;52.440;13.540;2024-03-08T10:57:45;29.75;;;26.70;;
14738;SDS011;7461;52.440;13.540;2024-03-08T11:00:13;28.30;;;25.83;;
14738;SDS011;7461;52.440;13.540;2024-03-08T11:02:43;29.00;;;26.45;;
14738;SDS011;7461;52.440;13.540;2024-03-08T11:05:10;26.13;;;23.70;;
14738;SDS011;7461;52.440;13.540;2024-03-08T11:07:41;31.15;;;26.88;;
14738;SDS011;7461;52.440;13.540;2024-03-08T11:10:19;26.85;;;24.48;;
14738;SDS011;7461;52.440;13.540;2024-03-08T11:12:47;28.95;;;26.15;;
14738;SDS011;7461;52.440;13.540;2024-03-08T11:15:14;28.27;;;25.48;;
14738;SDS011;7461;52.440;13.540;2024-03-08T11:17:47;30.30;;;27.33;;
14738;SDS011;7461;52.440;13.540;2024-03-08T11:20:15;26.33;;;23.58;;
14738;SDS011;7461;52.440;13.540;2024-03-08T11:22:47;29.77;;;27.33;;
14738;SDS011;7461;52.440;13.540;2024-03-08T11:25:33;27.70;;;25.13;;
14738;SDS011;7461;52.440;13.540;2024-03-08T11:28:11;27.50;;;24.83;;
14738;SDS011;7461;52.440;13.540;2024-03-08T11:30:45;26.88;;;24.45;;
14738;SDS011;7461;52.440;13.540;2024-03-08T11:33:13;28.35;;;25.38;;
14738;SDS011;7461;52.440;13.540;2024-03-08T11:35:41;25.95;;;23.60;;
14738;SDS011;7461;52.440;13.540;2024-03-08T11:38:11;27.38;;;25.05;;
14738;SDS011;7461;52.440;13.540;2024-03-08T11:40:40;25.13;;;22.52;;
14738;SDS011;7461;52.440;13.540;2024-03-08T11:43:08;24.52;;;22.50;;
14738;SDS011;7461;52.440;13.540;2024-03-08T11:45:35;23.30;;;21.30;;
14738;SDS011;7461;52.440;13.540;2024-03-08T11:48:06;23.15;;;21.15;;
14738;SDS011;7461;52.440;13.540;2024-03-08T11:50:33;21.85;;;19.92;;
14738;SDS011;7461;52.440;13.540;2024-03-08T11:53:01;22.88;;;20.67;;
14738;SDS011;7461;52.440;13.540;2024-03-08T11:55:29;23.23;;;21.13;;
14738;SDS011;7461;52.440;13.540;2024-03-08T11:58:05;22.73;;;20.88;;
14738;SDS011;7461;52.440;13.540;2024-03-08T12:00:35;22.70;;;20.65;;
14738;SDS011;7461;52.440;13.540;2024-03-08T12:03:06;21.73;;;19.40;;
14738;SDS011;7461;52.440;13.540;2024-03-08T12:05:34;21.67;;;19.60;;
14738;SDS011;7461;52.440;13.540;2024-03-08T12:08:03;22.38;;;20.40;;
14738;SDS011;7461;52.440;13.540;2024-03-08T12:10:32;22.05;;;19.98;;
14738;SDS011;7461;52.440;13.540;2024-03-08T12:13:00;20.98;;;18.90;;
14738;SDS011;7461;52.440;13.540;2024-03-08T12:15:29;22.30;;;19.98;;
14738;SDS011;7461;52.440;13.540;2024-03-08T12:17:59;22.23;;;19.95;;
14738;SDS011;7461;52.440;13.540;2024-03-08T12:20:27;24.70;;;22.48;;
14738;SDS011;7461;52.440;13.540;2024-03-08T12:22:55;25.27;;;22.83;;
14738;SDS011;7461;52.440;13.540;2024-03-08T12:25:26;26.40;;;24.08;;
14738;SDS011;7461;52.440;13.540;2024-03-08T12:27:54;27.08;;;24.88;;
14738;SDS011;7461;52.440;13.540;2024-03-08T12:30:22;26.40;;;24.02;;
14738;SDS011;7461;52.440;13.540;2024-03-08T12:32:57;28.33;;;25.67;;
14738;SDS011;7461;52.440;13.540;2024-03-08T12:35:24;28.38;;;25.67;;
14738;SDS011;7461;52.440;13.540;2024-03-08T12:37:52;27.67;;;25.30;;
14738;SDS011;7461;52.440;13.540;2024-03-08T12:40:25;28.73;;;26.00;;
14738;SDS011;7461;52.440;13.540;2024-03-08T12:42:53;31.70;;;28.05;;
14738;SDS011;7461;52.440;13.540;2024-03-08T12:45:20;28.23;;;25.65;;
14738;SDS011;7461;52.440;13.540;2024-03-08T12:47:49;28.98;;;26.17;;
14738;SDS011;7461;52.440;13.540;2024-03-08T12:50:17;29.42;;;26.80;;
14738;SDS011;7461;52.440;13.540;2024-03-08T12:52:45;25.17;;;22.98;;
14738;SDS011;7461;52.440;13.540;2024-03-08T12:55:13;26.27;;;24.17;;
14738;SDS011;7461;52.440;13.540;2024-03-08T12:57:41;29.08;;;26.52;;
14738;SDS011;7461;52.440;13.540;2024-03-08T13:00:09;27.25;;;24.70;;
14738;SDS011;7461;52.440;13.540;2024-03-08T13:02:38;29.48;;;26.67;;
14738;SDS011;7461;52.440;13.540;2024-03-08T13:05:07;28.33;;;26.00;;
14738;SDS011;7461;52.440;13.540;2024-03-08T13:07:37;27.08;;;24.65;;
14738;SDS011;7461;52.440;13.540;2024-03-08T13:10:05;26.80;;;24.45;;
14738;SDS011;7461;52.440;13.540;2024-03-08T13:12:34;27.20;;;24.73;;
14738;SDS011;7461;52.440;13.540;2024-03-08T13:15:03;26.13;;;23.67;;
14738;SDS011;7461;52.440;13.540;2024-03-08T13:17:31;24.10;;;22.10;;
14738;SDS011;7461;52.440;13.540;2024-03-08T13:19:58;26.23;;;23.77;;
14738;SDS011;7461;52.440;13.540;2024-03-08T13:22:26;25.25;;;22.88;;
14738;SDS011;7461;52.440;13.540;2024-03-08T13:24:55;27.02;;;24.85;;
14738;SDS011;7461;52.440;13.540;2024-03-08T13:27:22;24.88;;;22.58;;
14738;SDS011;7461;52.440;13.540;2024-03-08T13:29:50;27.52;;;25.27;;
14738;SDS011;7461;52.440;13.540;2024-03-08T13:32:17;24.60;;;22.50;;
14738;SDS011;7461;52.440;13.540;2024-03-08T13:34:47;25.98;;;23.85;;
14738;SDS011;7461;52.440;13.540;2024-03-08T13:37:16;23.10;;;21.10;;
14738;SDS011;7461;52.440;13.540;2024-03-08T13:39:43;25.13;;;22.92;;
14738;SDS011;7461;52.440;13.540;2024-03-08T13:42:12;23.75;;;21.85;;
14738;SDS011;7461;52.440;13.540;2024-03-08T13:44:44;25.48;;;23.02;;
14738;SDS011;7461;52.440;13.540;2024-03-08T13:47:12;23.00;;;20.90;;
14738;SDS011;7461;52.440;13.540;2024-03-08T13:49:39;23.17;;;21.10;;
14738;SDS011;7461;52.440;13.540;2024-03-08T13:52:08;22.13;;;20.33;;
14738;SDS011;7461;52.440;13.540;2024-03-08T13:54:37;22.25;;;20.35;;
14738;SDS011;7461;52.440;13.540;2024-03-08T13:57:04;22.27;;;20.30;;
14738;SDS011;7461;52.440;13.540;2024-03-08T13:59:33;19.75;;;18.05;;
14738;SDS011;7461;52.440;13.540;2024-03-08T14:02:02;22.00;;;19.70;;
14738;SDS011;7461;52.440;13.540;2024-03-08T14:04:29;22.80;;;20.85;;
14738;SDS011;7461;52.440;13.540;2024-03-08T14:06:56;21.58;;;19.52;;
14738;SDS011;7461;52.440;13.540;2024-03-08T14:09:28;21.50;;;19.67;;
14738;SDS011;7461;52.440;13.540;2024-03-08T14:11:56;23.58;;;21.65;;
14738;SDS011;7461;52.440;13.540;2024-03-08T14:14:23;22.52;;;20.38;;
14738;SDS011;7461;52.440;13.540;2024-03-08T14:16:52;23.02;;;20.90;;
14738;SDS011;7461;52.440;13.540;2024-03-08T14:19:22;21.77;;;19.92;;
14738;SDS011;7461;52.440;13.540;2024-03-08T14:21:50;20.92;;;19.33;;
14738;SDS011;7461;52.440;13.540;2024-03-08T14:24:18;22.48;;;20.58;;
14738;SDS011;7461;52.440;13.540;2024-03-08T14:26:45;21.48;;;19.80;;